Terminal Aerodrome Forecast
Issued by NWS

Home | Current Version | Previous Version | Text Only | Print | Product List | Glossary On
Versions: 1 2 3 4 5 6 7 8 9 10 11 12 13 14 15 16 17 18
781
FTUS41 KPBZ 100520
TAFMGW
TAF
KMGW 100520Z 1006/1106 23006KT 3SM -SHSN SCT014 BKN023
     FM100900 23007KT 6SM -SHSN OVC015
     FM101800 24007KT 3SM -SHSN OVC012
     FM110000 26010KT 1SM -SHSN OVC010=

USA.gov is the U.S. government's official web portal to all federal, state and local government web resources and services.